createdAt,value
2023-01-01T00:00:39.727Z,13.30
2023-01-01T00:03:06.636Z,14.53
2023-01-01T00:05:33.683Z,11.80
2023-01-01T00:08:04.643Z,12.13
2023-01-01T00:10:32.722Z,10.37
2023-01-01T00:13:00.447Z,10.97
2023-01-01T00:15:28.988Z,10.43
2023-01-01T00:17:56.103Z,8.97
2023-01-01T00:20:22.867Z,9.30
2023-01-01T00:22:57.111Z,7.23
2023-01-01T00:25:24.893Z,7.63
2023-01-01T00:27:51.741Z,7.27
2023-01-01T00:30:18.812Z,7.33
2023-01-01T00:32:54.738Z,6.60
2023-01-01T00:35:26.492Z,6.63
2023-01-01T00:37:54.538Z,6.57
2023-01-01T00:40:21.576Z,6.20
2023-01-01T00:42:48.339Z,6.40
2023-01-01T00:45:20.919Z,4.67
2023-01-01T00:47:48.598Z,4.50
2023-01-01T00:50:15.630Z,3.80
2023-01-01T00:52:42.406Z,3.40
2023-01-01T00:55:09.820Z,3.33
2023-01-01T00:57:36.608Z,3.50
2023-01-01T01:00:04.535Z,2.70
2023-01-01T01:02:31.544Z,2.40
2023-01-01T01:04:58.415Z,2.57
2023-01-01T01:07:25.165Z,2.47
2023-01-01T01:09:51.935Z,3.00
2023-01-01T01:12:19.111Z,2.70
2023-01-01T01:14:46.817Z,2.63
2023-01-01T01:17:13.632Z,2.23
2023-01-01T01:19:40.455Z,2.13
2023-01-01T01:22:07.224Z,2.70
2023-01-01T01:24:34.031Z,2.30
2023-01-01T01:27:00.823Z,1.70
2023-01-01T01:29:27.781Z,2.00
2023-01-01T01:31:54.484Z,1.90
2023-01-01T01:34:27.259Z,1.97
2023-01-01T01:36:55.087Z,2.13
2023-01-01T01:39:22.498Z,1.40
2023-01-01T01:41:49.343Z,1.70
2023-01-01T01:44:47.154Z,1.80
2023-01-01T01:47:34.463Z,1.70
2023-01-01T01:50:07.581Z,1.40
2023-01-01T01:52:37.961Z,1.37
2023-01-01T01:55:07.384Z,1.50
2023-01-01T01:57:34.632Z,1.40
2023-01-01T02:00:08.707Z,1.20
2023-01-01T02:02:58.170Z,1.50
2023-01-01T02:05:26.120Z,1.60
2023-01-01T02:07:53.913Z,1.33
2023-01-01T02:10:20.989Z,1.60
2023-01-01T02:12:47.943Z,1.20
2023-01-01T02:15:14.993Z,1.40
2023-01-01T02:17:54.255Z,1.30
2023-01-01T02:20:49.144Z,1.33
2023-01-01T02:23:52.257Z,1.93
2023-01-01T02:26:38.820Z,1.30
2023-01-01T02:29:26.285Z,1.63
2023-01-01T02:32:02.289Z,1.40
2023-01-01T02:34:58.014Z,3.13
2023-01-01T02:37:29.051Z,1.13
2023-01-01T02:39:59.295Z,1.10
2023-01-01T02:42:29.008Z,1.03
2023-01-01T02:44:58.262Z,1.30
2023-01-01T02:47:25.025Z,0.90
2023-01-01T02:50:12.419Z,1.23
2023-01-01T02:52:56.957Z,1.23
2023-01-01T02:55:23.694Z,1.30
2023-01-01T02:58:19.882Z,1.07
2023-01-01T03:00:48.819Z,1.60
2023-01-01T03:03:31.022Z,1.27
2023-01-01T03:06:23.403Z,1.70
2023-01-01T03:09:12.766Z,1.17
2023-01-01T03:11:50.201Z,1.23
2023-01-01T03:14:25.407Z,1.30
2023-01-01T03:16:59.002Z,1.40
2023-01-01T03:19:30.054Z,1.33
2023-01-01T03:22:03.420Z,1.40
2023-01-01T03:24:39.562Z,1.40
2023-01-01T03:27:17.684Z,0.80
2023-01-01T03:29:46.536Z,0.93
2023-01-01T03:32:21.297Z,1.20
2023-01-01T03:34:53.772Z,1.40
2023-01-01T03:37:26.160Z,1.27
2023-01-01T03:39:57.423Z,1.33
2023-01-01T03:42:35.167Z,1.30
2023-01-01T03:45:19.667Z,1.10
2023-01-01T03:47:47.093Z,1.37
2023-01-01T03:50:15.142Z,1.20
2023-01-01T03:52:50.794Z,1.47
2023-01-01T03:55:28.846Z,1.23
2023-01-01T03:58:11.992Z,0.90
2023-01-01T04:00:46.884Z,0.90
2023-01-01T04:03:27.295Z,1.17
2023-01-01T04:05:54.516Z,1.00
2023-01-01T04:08:22.085Z,1.40
2023-01-01T04:10:54.909Z,1.57
2023-01-01T04:13:21.697Z,1.20
2023-01-01T04:15:48.662Z,1.73
2023-01-01T04:18:15.442Z,1.10
2023-01-01T04:20:42.625Z,1.57
2023-01-01T04:23:09.345Z,1.60
2023-01-01T04:25:36.256Z,1.10
2023-01-01T04:28:03.603Z,1.43
2023-01-01T04:30:31.071Z,1.30
2023-01-01T04:32:57.741Z,1.37
2023-01-01T04:35:24.604Z,1.27
2023-01-01T04:37:51.438Z,1.20
2023-01-01T04:40:18.403Z,1.50
2023-01-01T04:42:45.252Z,1.43
2023-01-01T04:45:15.001Z,1.50
2023-01-01T04:47:42.526Z,1.70
2023-01-01T04:50:09.967Z,1.67
2023-01-01T04:52:36.788Z,1.27
2023-01-01T04:55:03.830Z,1.37
2023-01-01T04:57:31.640Z,1.80
2023-01-01T04:59:58.690Z,1.20
2023-01-01T05:02:26.187Z,1.33
2023-01-01T05:04:52.984Z,1.50
2023-01-01T05:07:19.890Z,1.30
2023-01-01T05:09:46.577Z,1.87
2023-01-01T05:12:13.341Z,1.40
2023-01-01T05:14:40.118Z,1.47
2023-01-01T05:17:07.055Z,1.50
2023-01-01T05:19:33.926Z,1.40
2023-01-01T05:22:05.344Z,1.43
2023-01-01T05:24:36.445Z,1.27
2023-01-01T05:27:03.430Z,1.13
2023-01-01T05:29:30.189Z,1.73
2023-01-01T05:31:56.999Z,1.70
2023-01-01T05:34:25.448Z,1.30
2023-01-01T05:36:52.312Z,1.30
2023-01-01T05:39:19.151Z,1.20
2023-01-01T05:41:45.833Z,1.53
2023-01-01T05:44:12.672Z,1.20
2023-01-01T05:46:39.852Z,2.00
2023-01-01T05:49:06.607Z,1.27
2023-01-01T05:53:59.558Z,1.50
2023-01-01T05:56:27.357Z,1.93
2023-01-01T05:58:55.038Z,1.30
2023-01-01T06:01:27.958Z,1.20
2023-01-01T06:03:56.412Z,1.60
2023-01-01T06:06:29.142Z,1.10
2023-01-01T06:09:01.101Z,2.10
2023-01-01T06:11:29.222Z,1.60
2023-01-01T06:13:59.148Z,1.30
2023-01-01T06:16:27.643Z,1.70
2023-01-01T06:18:54.683Z,1.27
2023-01-01T06:21:24.471Z,1.73
2023-01-01T06:23:51.420Z,1.57
2023-01-01T06:26:23.856Z,1.87
2023-01-01T06:28:51.449Z,1.40
2023-01-01T06:31:21.341Z,1.63
2023-01-01T06:33:49.112Z,1.73
2023-01-01T06:36:17.638Z,1.50
2023-01-01T06:38:47.451Z,1.30
2023-01-01T06:41:16.765Z,1.40
2023-01-01T06:43:43.936Z,1.40
2023-01-01T06:46:20.643Z,1.77
2023-01-01T06:48:49.568Z,1.27
2023-01-01T06:51:19.503Z,1.37
2023-01-01T06:53:46.869Z,1.50
2023-01-01T06:56:14.026Z,1.33
2023-01-01T06:58:41.132Z,1.37
2023-01-01T07:01:18.341Z,1.40
2023-01-01T07:03:50.455Z,2.00
2023-01-01T07:06:17.391Z,1.60
2023-01-01T07:08:44.217Z,1.20
2023-01-01T07:11:10.942Z,2.00
2023-01-01T07:13:37.775Z,1.67
2023-01-01T07:16:12.150Z,1.37
2023-01-01T07:18:39.701Z,1.00
2023-01-01T07:21:28.282Z,1.30
2023-01-01T07:23:56.525Z,1.40
2023-01-01T07:26:27.589Z,1.70
2023-01-01T07:28:54.443Z,2.00
2023-01-01T07:31:21.396Z,2.07
2023-01-01T07:33:48.154Z,1.53
2023-01-01T07:36:14.940Z,1.70
2023-01-01T07:38:41.665Z,2.17
2023-01-01T07:41:08.565Z,1.80
2023-01-01T07:43:35.469Z,1.40
2023-01-01T07:46:02.875Z,1.30
2023-01-01T07:48:33.408Z,2.13
2023-01-01T07:51:04.749Z,2.17
2023-01-01T07:53:31.495Z,1.87
2023-01-01T07:55:58.248Z,1.60
2023-01-01T07:58:25.023Z,1.90
2023-01-01T08:00:51.741Z,1.87
2023-01-01T08:03:18.529Z,1.80
2023-01-01T08:05:45.344Z,1.43
2023-01-01T08:08:12.354Z,1.97
2023-01-01T08:10:39.138Z,1.80
2023-01-01T08:13:07.663Z,1.30
2023-01-01T08:15:35.445Z,1.50
2023-01-01T08:18:04.775Z,1.80
2023-01-01T08:20:32.629Z,1.37
2023-01-01T08:23:06.335Z,1.90
2023-01-01T08:25:33.859Z,1.63
2023-01-01T08:28:00.602Z,1.87
2023-01-01T08:30:27.691Z,1.70
2023-01-01T08:32:54.623Z,1.60
2023-01-01T08:35:21.391Z,1.50
2023-01-01T08:37:48.140Z,1.70
2023-01-01T08:40:14.903Z,1.57
2023-01-01T08:42:41.639Z,1.60
2023-01-01T08:45:09.088Z,1.50
2023-01-01T08:47:35.926Z,1.33
2023-01-01T08:50:02.888Z,1.50
2023-01-01T08:52:29.579Z,1.60
2023-01-01T08:54:56.337Z,1.40
2023-01-01T08:57:23.194Z,1.60
2023-01-01T08:59:49.880Z,1.60
2023-01-01T09:02:16.784Z,1.50
2023-01-01T09:04:43.705Z,1.70
2023-01-01T09:07:10.485Z,1.23
2023-01-01T09:09:37.273Z,1.30
2023-01-01T09:12:06.147Z,1.23
2023-01-01T09:14:34.313Z,1.40
2023-01-01T09:17:01.759Z,1.80
2023-01-01T09:19:28.874Z,1.70
2023-01-01T09:21:55.959Z,1.80
2023-01-01T09:24:23.176Z,1.50
2023-01-01T09:26:49.916Z,1.10
2023-01-01T09:29:18.706Z,1.97
2023-01-01T09:31:46.266Z,1.23
2023-01-01T09:34:13.089Z,1.40
2023-01-01T09:36:39.811Z,2.17
2023-01-01T09:39:06.838Z,1.73
2023-01-01T09:41:46.462Z,1.60
2023-01-01T09:44:22.083Z,1.70
2023-01-01T09:46:49.574Z,1.57
2023-01-01T09:49:41.977Z,1.53
2023-01-01T09:52:14.566Z,1.80
2023-01-01T09:54:51.810Z,1.50
2023-01-01T09:57:20.417Z,2.23
2023-01-01T09:59:47.486Z,2.00
2023-01-01T10:02:40.303Z,1.43
2023-01-01T10:05:49.780Z,1.73
2023-01-01T10:08:41.120Z,2.43
2023-01-01T10:11:31.736Z,0.90
2023-01-01T10:14:00.727Z,1.80
2023-01-01T10:16:48.781Z,1.70
2023-01-01T10:19:37.811Z,1.63
2023-01-01T10:22:11.424Z,1.60
2023-01-01T10:24:52.585Z,2.30
2023-01-01T10:27:28.345Z,1.73
2023-01-01T10:30:03.272Z,1.53
2023-01-01T10:32:35.609Z,1.60
2023-01-01T10:35:14.811Z,2.03
2023-01-01T10:37:42.351Z,1.53
2023-01-01T10:40:24.261Z,1.90
2023-01-01T10:42:59.195Z,2.17
2023-01-01T10:45:30.852Z,1.60
2023-01-01T10:48:20.783Z,2.47
2023-01-01T10:50:57.577Z,1.30
2023-01-01T10:53:34.936Z,1.90
2023-01-01T10:56:07.966Z,1.43
2023-01-01T10:58:36.832Z,1.63
2023-01-01T11:01:05.752Z,1.47
2023-01-01T11:03:33.231Z,1.27
2023-01-01T11:06:24.744Z,1.47
2023-01-01T11:08:57.413Z,1.53
2023-01-01T11:11:28.353Z,1.90
2023-01-01T11:13:59.686Z,1.63
2023-01-01T11:16:28.354Z,1.53
2023-01-01T11:19:06.952Z,1.77
2023-01-01T11:21:34.985Z,1.70
2023-01-01T11:24:21.616Z,1.80
2023-01-01T11:26:54.368Z,2.13
2023-01-01T11:29:30.623Z,1.13
2023-01-01T11:32:00.606Z,1.97
2023-01-01T11:34:36.977Z,1.30
2023-01-01T11:37:13.931Z,1.57
2023-01-01T11:39:46.270Z,2.00
2023-01-01T11:42:26.317Z,1.63
2023-01-01T11:44:57.040Z,1.60
2023-01-01T11:47:40.761Z,1.27
2023-01-01T11:50:16.783Z,1.57
2023-01-01T11:52:51.691Z,8.00
2023-01-01T11:55:43.251Z,1.57
2023-01-01T11:58:47.406Z,1.90
2023-01-01T12:01:40.205Z,1.33
2023-01-01T12:04:37.588Z,1.10
2023-01-01T12:07:21.605Z,1.30
2023-01-01T12:10:03.614Z,1.80
2023-01-01T12:12:49.010Z,1.40
2023-01-01T12:15:31.742Z,1.30
2023-01-01T12:18:26.416Z,1.40
2023-01-01T12:21:16.196Z,2.00
2023-01-01T12:23:43.106Z,1.90
2023-01-01T12:26:18.222Z,1.77
2023-01-01T12:29:14.319Z,1.60
2023-01-01T12:31:54.863Z,1.60
2023-01-01T12:34:38.455Z,1.53
2023-01-01T12:37:43.510Z,2.07
2023-01-01T12:40:34.426Z,1.47
2023-01-01T12:43:25.250Z,1.50
2023-01-01T12:46:18.499Z,1.63
2023-01-01T12:48:57.188Z,1.60
2023-01-01T12:52:08.775Z,1.37
2023-01-01T12:55:23.402Z,1.93
2023-01-01T12:58:15.581Z,1.50
2023-01-01T13:00:54.640Z,1.90
2023-01-01T13:03:49.841Z,1.70
2023-01-01T13:06:24.920Z,0.90
2023-01-01T13:09:02.437Z,1.23
2023-01-01T13:11:29.391Z,1.57
2023-01-01T13:13:56.176Z,1.57
2023-01-01T13:16:41.641Z,1.80
2023-01-01T13:19:31.414Z,1.57
2023-01-01T13:21:58.618Z,1.33
2023-01-01T13:24:27.075Z,1.90
2023-01-01T13:26:54.579Z,1.30
2023-01-01T13:29:21.212Z,1.33
2023-01-01T13:31:47.933Z,1.50
2023-01-01T13:34:35.467Z,1.17
2023-01-01T13:37:11.336Z,1.23
2023-01-01T13:39:56.548Z,1.10
2023-01-01T13:42:52.208Z,1.40
2023-01-01T13:46:09.971Z,6.30
2023-01-01T13:48:32.563Z,2.53
2023-01-01T13:51:40.072Z,1.80
2023-01-01T13:54:16.252Z,1.47
2023-01-01T13:57:29.235Z,1.47
2023-01-01T14:00:14.155Z,1.70
2023-01-01T14:02:46.097Z,1.77
2023-01-01T14:05:33.531Z,1.43
2023-01-01T14:08:00.701Z,1.53
2023-01-01T14:10:30.446Z,1.47
2023-01-01T14:13:06.385Z,1.97
2023-01-01T14:15:39.627Z,1.20
2023-01-01T14:18:15.628Z,1.30
2023-01-01T14:20:45.642Z,1.70
2023-01-01T14:23:16.855Z,1.00
2023-01-01T14:25:44.922Z,1.60
2023-01-01T14:28:26.953Z,1.67
2023-01-01T14:30:56.292Z,1.10
2023-01-01T14:33:26.640Z,1.50
2023-01-01T14:36:01.778Z,1.30
2023-01-01T14:38:31.821Z,1.27
2023-01-01T14:41:30.794Z,1.30
2023-01-01T14:44:13.296Z,1.60
2023-01-01T14:46:44.990Z,1.20
2023-01-01T14:49:42.401Z,1.33
2023-01-01T14:52:21.356Z,1.30
2023-01-01T14:54:48.513Z,0.90
2023-01-01T14:57:20.499Z,1.70
2023-01-01T14:59:49.120Z,1.00
2023-01-01T15:02:37.445Z,1.70
2023-01-01T15:05:22.889Z,1.00
2023-01-01T15:08:00.492Z,1.03
2023-01-01T15:10:29.758Z,2.20
2023-01-01T15:12:59.967Z,1.23
2023-01-01T15:15:44.528Z,1.07
2023-01-01T15:18:42.865Z,1.10
2023-01-01T15:21:16.970Z,1.10
2023-01-01T15:24:09.408Z,1.07
2023-01-01T15:26:49.060Z,1.80
2023-01-01T15:29:23.494Z,1.67
2023-01-01T15:31:55.453Z,1.33
2023-01-01T15:34:30.518Z,1.37
2023-01-01T15:37:09.554Z,2.17
2023-01-01T15:39:46.275Z,1.73
2023-01-01T15:42:37.267Z,1.30
2023-01-01T15:45:22.436Z,1.57
2023-01-01T15:47:50.883Z,1.13
2023-01-01T15:50:23.708Z,1.20
2023-01-01T15:53:09.640Z,0.80
2023-01-01T15:55:43.116Z,1.37
2023-01-01T15:58:26.214Z,1.23
2023-01-01T16:00:59.014Z,1.37
2023-01-01T16:03:28.914Z,1.87
2023-01-01T16:05:56.475Z,1.90
2023-01-01T16:08:23.529Z,1.40
2023-01-01T16:10:51.293Z,3.10
2023-01-01T16:13:19.001Z,1.50
2023-01-01T16:15:57.704Z,2.10
2023-01-01T16:18:38.508Z,1.33
2023-01-01T16:21:06.011Z,1.50
2023-01-01T16:23:32.757Z,2.10
2023-01-01T16:25:59.536Z,1.60
2023-01-01T16:28:26.259Z,2.83
2023-01-01T16:30:53.111Z,2.70
2023-01-01T16:33:22.698Z,3.20
2023-01-01T16:35:49.751Z,3.63
2023-01-01T16:38:16.563Z,3.83
2023-01-01T16:40:43.390Z,3.90
2023-01-01T16:43:17.144Z,2.80
2023-01-01T16:45:45.142Z,4.27
2023-01-01T16:48:11.954Z,4.80
2023-01-01T16:50:38.826Z,5.43
2023-01-01T16:53:05.536Z,3.93
2023-01-01T16:55:32.224Z,3.90
2023-01-01T16:58:37.978Z,3.67
2023-01-01T17:00:46.896Z,3.70
2023-01-01T17:03:14.449Z,4.23
2023-01-01T17:05:44.408Z,3.77
2023-01-01T17:08:11.614Z,5.00
2023-01-01T17:10:38.378Z,4.10
2023-01-01T17:13:05.198Z,3.93
2023-01-01T17:15:32.410Z,3.40
2023-01-01T17:17:59.281Z,12.80
2023-01-01T17:20:26.986Z,8.87
2023-01-01T17:22:53.888Z,7.47
2023-01-01T17:25:20.723Z,10.90
2023-01-01T17:27:47.542Z,16.37
2023-01-01T17:30:14.509Z,16.27
2023-01-01T17:32:41.370Z,8.90
2023-01-01T17:35:08.469Z,5.40
2023-01-01T17:37:35.414Z,4.80
2023-01-01T17:40:02.259Z,4.83
2023-01-01T17:42:29.468Z,6.20
2023-01-01T17:44:56.177Z,5.10
2023-01-01T17:47:25.502Z,5.60
2023-01-01T17:49:55.919Z,4.73
2023-01-01T17:52:22.661Z,4.87
2023-01-01T17:54:49.377Z,4.50
2023-01-01T17:57:17.064Z,4.77
2023-01-01T17:59:44.306Z,4.77
2023-01-01T18:02:15.256Z,4.87
2023-01-01T18:04:42.291Z,4.43
2023-01-01T18:07:09.039Z,5.90
2023-01-01T18:09:38.096Z,4.57
2023-01-01T18:12:05.956Z,5.47
2023-01-01T18:14:32.832Z,4.40
2023-01-01T18:16:59.592Z,5.00
2023-01-01T18:19:27.704Z,4.40
2023-01-01T18:21:54.587Z,10.93
2023-01-01T18:24:21.420Z,4.57
2023-01-01T18:26:48.219Z,3.93
2023-01-01T18:29:15.011Z,4.30
2023-01-01T18:31:41.886Z,4.83
2023-01-01T18:34:10.292Z,3.90
2023-01-01T18:36:37.134Z,4.20
2023-01-01T18:39:15.409Z,4.50
2023-01-01T18:41:42.078Z,3.63
2023-01-01T18:44:21.429Z,4.77
2023-01-01T18:46:59.100Z,4.30
2023-01-01T18:49:26.255Z,4.20
2023-01-01T18:52:05.980Z,5.23
2023-01-01T18:54:33.847Z,4.43
2023-01-01T18:57:23.679Z,5.17
2023-01-01T18:59:55.768Z,4.00
2023-01-01T19:02:37.642Z,5.03
2023-01-01T19:05:15.197Z,4.40
2023-01-01T19:07:42.064Z,4.80
2023-01-01T19:10:13.283Z,4.97
2023-01-01T19:12:40.341Z,4.83
2023-01-01T19:15:20.755Z,4.63
2023-01-01T19:17:47.545Z,4.73
2023-01-01T19:20:17.878Z,4.53
2023-01-01T19:22:45.761Z,4.20
2023-01-01T19:25:45.537Z,5.17
2023-01-01T19:28:18.355Z,5.17
2023-01-01T19:30:46.560Z,4.80
2023-01-01T19:33:14.225Z,5.73
2023-01-01T19:35:41.527Z,5.70
2023-01-01T19:38:08.206Z,6.27
2023-01-01T19:40:34.934Z,5.20
2023-01-01T19:43:03.588Z,5.73
2023-01-01T19:45:30.396Z,5.47
2023-01-01T19:47:57.097Z,5.17
2023-01-01T19:50:24.061Z,4.50
2023-01-01T19:52:50.824Z,5.33
2023-01-01T19:55:17.629Z,5.20
2023-01-01T19:57:44.333Z,6.27
2023-01-01T20:00:11.429Z,6.13
2023-01-01T20:02:47.629Z,5.80
2023-01-01T20:05:15.384Z,5.47
2023-01-01T20:07:42.263Z,5.53
2023-01-01T20:10:09.477Z,4.50
2023-01-01T20:12:36.307Z,4.10
2023-01-01T20:15:03.353Z,5.40
2023-01-01T20:17:30.750Z,5.87
2023-01-01T20:19:58.420Z,5.70
2023-01-01T20:22:25.243Z,5.60
2023-01-01T20:24:52.069Z,4.20
2023-01-01T20:27:23.152Z,5.13
2023-01-01T20:29:50.680Z,5.10
2023-01-01T20:32:17.608Z,5.17
2023-01-01T20:34:44.697Z,4.77
2023-01-01T20:37:29.930Z,5.30
2023-01-01T20:39:56.767Z,4.90
2023-01-01T20:42:23.672Z,4.57
2023-01-01T20:44:50.372Z,5.13
2023-01-01T20:47:17.086Z,4.60
2023-01-01T20:49:43.914Z,5.33
2023-01-01T20:52:11.747Z,4.73
2023-01-01T20:54:38.435Z,5.00
2023-01-01T20:57:05.277Z,5.43
2023-01-01T20:59:35.808Z,4.93
2023-01-01T21:02:05.758Z,4.23
2023-01-01T21:04:38.721Z,4.87
2023-01-01T21:07:08.363Z,4.20
2023-01-01T21:09:35.515Z,5.17
2023-01-01T21:12:02.541Z,5.17
2023-01-01T21:14:29.423Z,4.83
2023-01-01T21:16:56.505Z,4.20
2023-01-01T21:19:27.036Z,4.80
2023-01-01T21:21:58.615Z,4.70
2023-01-01T21:24:28.570Z,4.07
2023-01-01T21:27:10.329Z,4.17
2023-01-01T21:29:40.852Z,4.60
2023-01-01T21:32:20.526Z,4.37
2023-01-01T21:34:50.477Z,4.67
2023-01-01T21:37:52.871Z,12.20
2023-01-01T21:40:31.168Z,4.17
2023-01-01T21:43:37.379Z,3.87
2023-01-01T21:46:07.289Z,5.00
2023-01-01T21:48:56.126Z,3.97
2023-01-01T21:51:32.262Z,3.90
2023-01-01T21:54:18.216Z,3.93
2023-01-01T21:57:01.991Z,3.87
2023-01-01T21:59:41.860Z,3.90
2023-01-01T22:02:34.096Z,4.30
2023-01-01T22:05:16.363Z,4.30
2023-01-01T22:08:01.305Z,4.13
2023-01-01T22:10:37.258Z,5.00
2023-01-01T22:13:14.784Z,3.43
2023-01-01T22:15:44.943Z,3.23
2023-01-01T22:18:28.140Z,3.93
2023-01-01T22:20:56.331Z,3.70
2023-01-01T22:23:27.644Z,3.60
2023-01-01T22:25:54.421Z,3.70
2023-01-01T22:28:25.480Z,3.93
2023-01-01T22:31:00.415Z,4.00
2023-01-01T22:33:44.136Z,3.97
2023-01-01T22:36:18.193Z,3.13
2023-01-01T22:38:45.675Z,3.90
2023-01-01T22:41:13.535Z,3.30
2023-01-01T22:43:43.652Z,4.00
2023-01-01T22:46:33.631Z,3.80
2023-01-01T22:49:10.512Z,3.77
2023-01-01T22:51:44.739Z,2.93
2023-01-01T22:54:11.466Z,3.33
2023-01-01T22:56:38.248Z,3.40
2023-01-01T22:59:05.146Z,3.43
2023-01-01T23:01:31.999Z,3.93
2023-01-01T23:03:59.003Z,3.40
2023-01-01T23:06:26.096Z,3.57
2023-01-01T23:08:53.676Z,3.80
2023-01-01T23:11:21.127Z,3.43
2023-01-01T23:14:08.484Z,2.80
2023-01-01T23:16:36.105Z,3.13
2023-01-01T23:19:03.653Z,3.37
2023-01-01T23:21:32.495Z,3.33
2023-01-01T23:24:01.496Z,3.73
2023-01-01T23:26:28.571Z,3.30
2023-01-01T23:28:55.971Z,3.00
2023-01-01T23:31:25.752Z,3.80
2023-01-01T23:33:54.933Z,2.83
2023-01-01T23:36:23.041Z,2.70
2023-01-01T23:38:50.047Z,2.63
2023-01-01T23:41:16.803Z,3.73
2023-01-01T23:43:44.209Z,2.63
2023-01-01T23:46:13.416Z,2.97
2023-01-01T23:48:42.011Z,2.87
2023-01-01T23:51:09.730Z,2.50
2023-01-01T23:53:36.472Z,3.00
2023-01-01T23:56:03.343Z,3.47
2023-01-01T23:58:30.029Z,2.73
